Time;durP1;ratioP1;P1;durP2;ratioP2;P2;SDS_P1;SDS_P2;PMS_P1;PMS_P2;Temp;Humidity;BMP_temperature;BMP_pressure;BME280_temperature;BME280_humidity;BME280_pressure;Samples;Min_cycle;Max_cycle;Signal;HPM_P1;HPM_P2
2022/01/16 00:01:17;;;;;;;59.95;27.27;;;;;;;;;;6156348;23;20418;-64
2022/01/16 00:06:26;;;;;;;64.47;30.08;;;;;;;;;;6156259;23;20449;-64
2022/01/16 00:08:52;;;;;;;72.68;31.30;;;;;;;;;;6156298;23;20001;-62
2022/01/16 00:11:17;;;;;;;62.53;30.27;;;;;;;;;;6156386;23;20001;-62
2022/01/16 00:13:44;;;;;;;60.05;29.45;;;;;;;;;;6129942;23;20008;-63
2022/01/16 00:16:13;;;;;;;65.63;29.42;;;;;;;;;;6155791;23;20508;-63
2022/01/16 00:18:49;;;;;;;63.95;29.10;;;;;;;;;;6155954;23;20004;-63
2022/01/16 00:21:18;;;;;;;67.05;29.58;;;;;;;;;;6156053;23;20081;-64
2022/01/16 00:23:44;;;;;;;67.90;29.17;;;;;;;;;;6155764;23;20008;-63
2022/01/16 00:26:09;;;;;;;67.95;30.33;;;;;;;;;;6155749;23;20092;-64
2022/01/16 00:28:35;;;;;;;62.85;29.88;;;;;;;;;;6155761;23;20032;-64
2022/01/16 00:31:00;;;;;;;70.22;30.42;;;;;;;;;;6155814;23;20008;-63
2022/01/16 00:33:26;;;;;;;65.78;29.30;;;;;;;;;;6154194;23;20326;-66
2022/01/16 00:35:51;;;;;;;66.40;30.90;;;;;;;;;;6130035;23;20013;-61
2022/01/16 00:38:16;;;;;;;67.05;31.52;;;;;;;;;;6155902;23;20028;-62
2022/01/16 00:40:42;;;;;;;71.85;30.60;;;;;;;;;;6155983;23;20069;-61
2022/01/16 00:43:07;;;;;;;71.90;32.45;;;;;;;;;;6129944;23;20422;-61
2022/01/16 00:45:34;;;;;;;69.47;31.02;;;;;;;;;;6155858;23;20006;-61
2022/01/16 00:48:03;;;;;;;74.55;32.50;;;;;;;;;;6155885;23;20076;-62
2022/01/16 00:50:31;;;;;;;72.22;30.63;;;;;;;;;;6155663;23;20088;-61
2022/01/16 00:52:56;;;;;;;71.05;31.35;;;;;;;;;;6156003;23;20461;-61
2022/01/16 00:55:22;;;;;;;72.65;31.13;;;;;;;;;;6155730;23;20005;-61
2022/01/16 00:57:47;;;;;;;68.80;30.88;;;;;;;;;;6156497;23;19997;-61
2022/01/16 01:00:13;;;;;;;64.40;28.92;;;;;;;;;;6155821;23;20033;-63
2022/01/16 01:02:39;;;;;;;59.45;27.80;;;;;;;;;;6156769;23;20008;-62
2022/01/16 01:05:05;;;;;;;67.00;28.95;;;;;;;;;;6157804;23;20369;-62
2022/01/16 01:07:31;;;;;;;62.60;29.67;;;;;;;;;;6158111;23;20017;-62
2022/01/16 01:09:56;;;;;;;68.40;29.50;;;;;;;;;;6157585;23;20009;-62
2022/01/16 01:12:29;;;;;;;69.47;30.20;;;;;;;;;;6157878;23;19994;-71
2022/01/16 01:15:07;;;;;;;65.28;29.05;;;;;;;;;;6157583;23;20001;-71
2022/01/16 01:17:37;;;;;;;61.40;28.70;;;;;;;;;;6157897;23;20088;-71
2022/01/16 01:20:04;;;;;;;61.35;28.23;;;;;;;;;;6157604;23;20001;-71
2022/01/16 01:22:30;;;;;;;67.07;28.05;;;;;;;;;;6157890;23;20071;-71
2022/01/16 01:24:55;;;;;;;65.30;29.58;;;;;;;;;;6157046;23;20413;-71
2022/01/16 01:27:26;;;;;;;52.38;24.02;;;;;;;;;;6157870;23;20088;-71
2022/01/16 01:30:01;;;;;;;51.75;23.55;;;;;;;;;;6156905;23;20005;-71
2022/01/16 01:32:27;;;;;;;52.53;25.70;;;;;;;;;;6157680;23;20449;-71
2022/01/16 01:34:52;;;;;;;54.38;26.02;;;;;;;;;;6157365;23;19994;-70
2022/01/16 01:37:18;;;;;;;57.05;27.73;;;;;;;;;;6157152;23;20009;-70
2022/01/16 01:39:43;;;;;;;53.22;26.20;;;;;;;;;;6157468;23;20398;-69
2022/01/16 01:42:11;;;;;;;56.55;26.05;;;;;;;;;;6157675;23;20430;-64
2022/01/16 01:52:51;;;;;;;58.55;26.48;;;;;;;;;;6102057;23;20100;-66
2022/01/16 01:55:18;;;;;;;69.32;30.58;;;;;;;;;;6127726;23;20434;-63
2022/01/16 01:57:43;;;;;;;55.42;26.65;;;;;;;;;;6127639;23;20042;-63
2022/01/16 02:00:10;;;;;;;61.38;28.52;;;;;;;;;;6128180;23;20046;-63
2022/01/16 02:02:53;;;;;;;58.65;28.52;;;;;;;;;;6127722;23;20026;-63
2022/01/16 02:05:19;;;;;;;60.75;27.83;;;;;;;;;;6127612;23;20010;-63
2022/01/16 02:07:46;;;;;;;73.53;32.40;;;;;;;;;;6127728;23;20033;-64
2022/01/16 02:10:11;;;;;;;76.45;33.55;;;;;;;;;;6127532;23;20012;-64
2022/01/16 02:12:41;;;;;;;74.88;33.83;;;;;;;;;;6101805;23;20076;-64
2022/01/16 02:15:33;;;;;;;78.75;36.33;;;;;;;;;;6127155;23;20409;-63
2022/01/16 02:29:39;;;;;;;79.15;34.22;;;;;;;;;;6127822;23;20010;-65
2022/01/16 02:34:34;;;;;;;59.95;27.15;;;;;;;;;;6127437;23;20006;-64
2022/01/16 02:37:04;;;;;;;62.60;29.70;;;;;;;;;;6102008;23;20064;-65
2022/01/16 02:39:36;;;;;;;53.63;25.45;;;;;;;;;;6101788;23;20056;-66
2022/01/16 02:42:03;;;;;;;52.33;27.55;;;;;;;;;;6127659;23;20009;-65
2022/01/16 02:44:34;;;;;;;59.58;28.35;;;;;;;;;;6127167;23;20001;-65
2022/01/16 02:47:00;;;;;;;58.03;28.13;;;;;;;;;;6127165;23;20006;-66
2022/01/16 02:49:30;;;;;;;59.83;29.17;;;;;;;;;;6127312;23;20006;-63
2022/01/16 02:52:01;;;;;;;56.80;25.52;;;;;;;;;;6127121;23;20017;-63
2022/01/16 02:54:27;;;;;;;44.63;22.23;;;;;;;;;;6127126;23;20006;-63
2022/01/16 02:56:53;;;;;;;58.67;29.42;;;;;;;;;;6127485;23;20097;-64
2022/01/16 02:59:20;;;;;;;58.00;28.13;;;;;;;;;;6127067;23;20044;-64
2022/01/16 03:01:45;;;;;;;59.28;28.98;;;;;;;;;;6127176;23;20461;-66
2022/01/16 03:04:11;;;;;;;64.47;30.02;;;;;;;;;;6127018;23;20006;-64
2022/01/16 03:06:36;;;;;;;61.63;30.05;;;;;;;;;;6126895;23;20028;-65
2022/01/16 03:09:06;;;;;;;49.33;25.60;;;;;;;;;;6127698;23;20013;-64
2022/01/16 03:11:37;;;;;;;58.28;28.48;;;;;;;;;;6077211;23;20006;-64
2022/01/16 03:14:03;;;;;;;52.45;25.55;;;;;;;;;;6126901;23;20077;-64
2022/01/16 03:16:29;;;;;;;54.67;26.58;;;;;;;;;;6127261;23;20001;-64
2022/01/16 03:21:54;;;;;;;57.53;28.23;;;;;;;;;;6122858;23;20010;-64
2022/01/16 03:24:25;;;;;;;52.67;25.52;;;;;;;;;;6121899;23;20010;-64
2022/01/16 03:26:50;;;;;;;;;;;;;;;;;;6127502;23;20012;-64
2022/01/16 03:29:15;;;;;;;48.65;22.40;;;;;;;;;;6126765;23;19901;-64
2022/01/16 03:31:41;;;;;;;48.28;23.48;;;;;;;;;;6100665;23;20449;-64
2022/01/16 03:34:06;;;;;;;50.78;23.48;;;;;;;;;;6126248;23;20078;-65
2022/01/16 03:36:32;;;;;;;50.85;24.60;;;;;;;;;;6126770;23;20056;-64
2022/01/16 03:38:57;;;;;;;47.95;23.10;;;;;;;;;;6126467;23;20407;-64
2022/01/16 03:41:27;;;;;;;44.72;23.40;;;;;;;;;;6126715;23;20438;-65
2022/01/16 03:43:53;;;;;;;53.80;25.13;;;;;;;;;;6126791;23;20005;-64
2022/01/16 03:46:18;;;;;;;56.40;26.75;;;;;;;;;;6100655;23;20010;-64
2022/01/16 03:48:43;;;;;;;61.35;27.95;;;;;;;;;;6126795;23;19998;-63
2022/01/16 03:51:09;;;;;;;61.15;29.50;;;;;;;;;;6100067;23;20018;-64
2022/01/16 03:53:34;;;;;;;64.63;30.98;;;;;;;;;;6127170;23;20014;-63
2022/01/16 03:56:00;;;;;;;63.42;30.50;;;;;;;;;;6101315;23;20006;-63
2022/01/16 03:58:25;;;;;;;65.15;29.92;;;;;;;;;;6127176;23;20013;-62
2022/01/16 04:00:51;;;;;;;57.85;28.88;;;;;;;;;;6126621;23;20025;-62
2022/01/16 04:03:16;;;;;;;60.55;30.55;;;;;;;;;;6126802;23;19997;-62
2022/01/16 04:05:42;;;;;;;64.65;31.08;;;;;;;;;;6127148;23;20498;-62
2022/01/16 04:08:07;;;;;;;60.00;27.92;;;;;;;;;;6127113;23;20005;-62
2022/01/16 04:10:33;;;;;;;49.85;25.27;;;;;;;;;;6100898;23;20018;-62
2022/01/16 04:12:58;;;;;;;52.50;24.55;;;;;;;;;;6126855;23;20081;-69
2022/01/16 04:15:33;;;;;;;44.72;22.27;;;;;;;;;;6125341;23;20032;-70
2022/01/16 04:17:59;;;;;;;37.03;19.00;;;;;;;;;;6117182;23;20018;-70
2022/01/16 04:20:24;;;;;;;38.40;20.95;;;;;;;;;;6126369;23;20002;-70
2022/01/16 04:22:50;;;;;;;44.22;23.70;;;;;;;;;;6100442;23;20443;-70
2022/01/16 04:25:15;;;;;;;47.95;23.55;;;;;;;;;;6126947;23;20300;-70
2022/01/16 04:27:41;;;;;;;45.45;23.35;;;;;;;;;;6126643;23;20010;-70
2022/01/16 04:30:07;;;;;;;48.67;25.02;;;;;;;;;;6126617;23;19994;-70
2022/01/16 04:32:33;;;;;;;47.67;24.33;;;;;;;;;;6126581;23;20001;-70
2022/01/16 04:34:58;;;;;;;43.10;22.65;;;;;;;;;;6126404;23;20077;-70
2022/01/16 04:37:23;;;;;;;48.03;23.17;;;;;;;;;;6127239;23;20006;-70
2022/01/16 04:39:51;;;;;;;53.60;26.38;;;;;;;;;;6128480;23;19998;-70
2022/01/16 04:45:02;;;;;;;50.65;26.27;;;;;;;;;;6128791;23;20016;-70
2022/01/16 04:47:28;;;;;;;46.30;25.63;;;;;;;;;;6128583;23;20025;-70
2022/01/16 04:49:53;;;;;;;52.15;26.88;;;;;;;;;;6128372;23;20010;-71
2022/01/16 04:52:20;;;;;;;48.60;26.40;;;;;;;;;;6128114;23;20446;-71
2022/01/16 04:54:45;;;;;;;56.92;29.45;;;;;;;;;;6128279;23;20085;-71
2022/01/16 04:57:13;;;;;;;56.33;28.17;;;;;;;;;;6128431;23;20371;-64
2022/01/16 04:59:38;;;;;;;52.03;26.77;;;;;;;;;;6128210;23;20006;-64
2022/01/16 05:02:04;;;;;;;49.45;25.83;;;;;;;;;;6128509;23;20012;-64
2022/01/16 05:04:29;;;;;;;50.60;26.52;;;;;;;;;;6127993;23;20092;-63
2022/01/16 05:06:55;;;;;;;49.03;26.83;;;;;;;;;;6128228;23;20038;-64
2022/01/16 05:09:20;;;;;;;52.13;27.20;;;;;;;;;;6128680;23;20006;-62
2022/01/16 05:11:52;;;;;;;51.10;26.98;;;;;;;;;;6128589;23;20085;-62
2022/01/16 05:17:02;;;;;;;47.97;25.95;;;;;;;;;;6128816;23;20017;-64
2022/01/16 05:19:27;;;;;;;48.03;25.90;;;;;;;;;;6128258;23;20002;-65
2022/01/16 05:21:54;;;;;;;51.63;28.55;;;;;;;;;;6127905;23;20010;-65
2022/01/16 05:24:19;;;;;;;44.92;24.05;;;;;;;;;;6128354;23;20084;-64
2022/01/16 05:26:45;;;;;;;43.60;23.40;;;;;;;;;;6127877;23;20060;-65
2022/01/16 05:29:11;;;;;;;45.10;24.48;;;;;;;;;;6127938;23;19994;-65
2022/01/16 05:31:37;;;;;;;45.95;24.20;;;;;;;;;;6128142;23;20367;-70
2022/01/16 05:34:02;;;;;;;40.88;22.35;;;;;;;;;;6127860;23;19994;-71
2022/01/16 05:36:28;;;;;;;37.90;22.33;;;;;;;;;;6127784;23;20064;-71
2022/01/16 05:38:53;;;;;;;42.22;22.50;;;;;;;;;;6127979;23;20005;-70
2022/01/16 05:41:19;;;;;;;46.35;24.50;;;;;;;;;;6128223;23;20010;-71
2022/01/16 05:43:48;;;;;;;44.13;24.45;;;;;;;;;;6127999;23;20006;-71
2022/01/16 05:46:14;;;;;;;48.92;25.33;;;;;;;;;;6128123;23;20009;-71
2022/01/16 05:48:39;;;;;;;48.30;25.88;;;;;;;;;;6127180;23;20005;-70
2022/01/16 05:51:05;;;;;;;48.38;25.42;;;;;;;;;;6127270;23;20014;-70
2022/01/16 05:53:30;;;;;;;46.58;25.75;;;;;;;;;;6127691;23;20009;-70
2022/01/16 05:55:55;;;;;;;47.33;24.35;;;;;;;;;;6127914;23;20457;-69
2022/01/16 05:58:21;;;;;;;48.67;25.25;;;;;;;;;;6127727;23;20434;-69
2022/01/16 06:00:48;;;;;;;50.47;28.65;;;;;;;;;;6128124;23;20060;-68
2022/01/16 06:03:14;;;;;;;48.92;26.58;;;;;;;;;;6127986;23;20002;-68
2022/01/16 06:05:40;;;;;;;48.55;27.75;;;;;;;;;;6100598;23;20447;-69
2022/01/16 06:08:12;;;;;;;49.47;27.60;;;;;;;;;;6127433;23;20014;-69
2022/01/16 06:10:38;;;;;;;43.33;25.58;;;;;;;;;;6127608;23;20013;-68
2022/01/16 06:13:05;;;;;;;44.88;26.38;;;;;;;;;;6127605;23;19998;-68
2022/01/16 06:15:31;;;;;;;52.35;28.90;;;;;;;;;;6127556;23;20006;-68
2022/01/16 06:17:56;;;;;;;51.38;28.13;;;;;;;;;;6127520;23;20436;-70
2022/01/16 06:20:22;;;;;;;53.47;28.80;;;;;;;;;;6127687;23;20009;-69
2022/01/16 06:22:47;;;;;;;53.38;28.10;;;;;;;;;;6127446;23;20037;-62
2022/01/16 06:25:13;;;;;;;54.85;29.10;;;;;;;;;;6127445;23;20010;-62
2022/01/16 06:27:39;;;;;;;53.75;28.15;;;;;;;;;;6101154;23;20037;-62
2022/01/16 06:30:05;;;;;;;52.72;28.52;;;;;;;;;;6127624;23;20006;-63
2022/01/16 06:32:31;;;;;;;50.47;27.90;;;;;;;;;;6127664;23;19998;-63
2022/01/16 06:34:56;;;;;;;56.25;29.17;;;;;;;;;;6127549;23;20359;-63
2022/01/16 06:37:22;;;;;;;60.35;30.83;;;;;;;;;;6127673;23;20060;-64
2022/01/16 06:39:47;;;;;;;52.38;27.77;;;;;;;;;;6127090;23;20312;-64
2022/01/16 06:42:12;;;;;;;52.17;28.30;;;;;;;;;;6127399;23;20006;-64
2022/01/16 06:44:38;;;;;;;60.42;30.00;;;;;;;;;;6101396;23;20034;-64
2022/01/16 06:47:04;;;;;;;60.83;30.98;;;;;;;;;;6127061;23;19998;-63
2022/01/16 06:49:29;;;;;;;59.05;31.08;;;;;;;;;;6127251;23;20041;-65
2022/01/16 06:51:55;;;;;;;67.43;33.63;;;;;;;;;;6144518;23;20058;-65
2022/01/16 06:54:20;;;;;;;59.53;30.90;;;;;;;;;;6156496;23;20007;-64
2022/01/16 06:56:46;;;;;;;57.05;30.90;;;;;;;;;;6131014;23;20009;-63
2022/01/16 06:59:11;;;;;;;64.03;32.40;;;;;;;;;;6156533;23;20016;-71
2022/01/16 07:01:37;;;;;;;54.90;30.25;;;;;;;;;;6156537;23;20080;-70
2022/01/16 07:04:02;;;;;;;62.63;35.00;;;;;;;;;;6130488;23;20446;-70
2022/01/16 07:06:28;;;;;;;65.68;35.05;;;;;;;;;;6156460;23;19997;-70
2022/01/16 07:08:53;;;;;;;69.18;34.92;;;;;;;;;;6156519;23;20461;-70
2022/01/16 07:11:19;;;;;;;78.68;37.00;;;;;;;;;;6156409;23;19994;-70
2022/01/16 07:13:45;;;;;;;64.65;33.65;;;;;;;;;;6155560;23;20759;-70
2022/01/16 07:16:10;;;;;;;81.38;41.65;;;;;;;;;;6156569;23;20006;-71
2022/01/16 07:18:36;;;;;;;123.90;67.47;;;;;;;;;;6156686;23;20005;-71
2022/01/16 07:21:01;;;;;;;99.65;54.60;;;;;;;;;;6156452;23;20001;-71
2022/01/16 07:23:27;;;;;;;92.32;54.10;;;;;;;;;;6156739;23;20005;-70
2022/01/16 07:25:52;;;;;;;80.67;44.37;;;;;;;;;;6156123;23;20315;-71
2022/01/16 07:28:18;;;;;;;85.38;49.30;;;;;;;;;;6156287;23;20012;-71
2022/01/16 07:30:44;;;;;;;98.05;56.10;;;;;;;;;;6156152;23;20056;-71
2022/01/16 07:33:09;;;;;;;115.75;67.70;;;;;;;;;;6130147;23;20012;-71
2022/01/16 07:35:37;;;;;;;111.80;69.50;;;;;;;;;;6156135;23;19999;-74
2022/01/16 07:38:03;;;;;;;79.30;42.97;;;;;;;;;;6156383;23;20012;-70
2022/01/16 07:40:29;;;;;;;66.03;38.20;;;;;;;;;;6156367;23;20001;-70
2022/01/16 07:42:54;;;;;;;62.55;34.67;;;;;;;;;;6156081;23;20538;-70
2022/01/16 07:45:20;;;;;;;59.75;32.22;;;;;;;;;;6155849;23;20032;-70
2022/01/16 07:47:46;;;;;;;56.58;31.83;;;;;;;;;;6155744;23;20036;-70
2022/01/16 07:50:12;;;;;;;59.30;31.90;;;;;;;;;;6155961;23;20057;-70
2022/01/16 07:52:38;;;;;;;57.75;36.63;;;;;;;;;;6156060;23;20017;-70
2022/01/16 07:55:04;;;;;;;60.03;38.00;;;;;;;;;;6155689;23;20032;-70
2022/01/16 07:57:29;;;;;;;55.40;30.13;;;;;;;;;;6155397;23;20492;-71
2022/01/16 07:59:54;;;;;;;50.33;29.00;;;;;;;;;;6156005;23;20009;-71
2022/01/16 08:02:20;;;;;;;50.03;31.08;;;;;;;;;;6156083;23;20187;-71
2022/01/16 08:04:46;;;;;;;56.63;31.52;;;;;;;;;;6155963;23;20002;-71
2022/01/16 08:07:12;;;;;;;67.97;35.95;;;;;;;;;;6156019;23;20005;-72
2022/01/16 08:09:38;;;;;;;73.10;37.78;;;;;;;;;;6130203;23;20009;-71
2022/01/16 08:12:04;;;;;;;73.25;38.83;;;;;;;;;;6155536;23;20006;-71
2022/01/16 08:14:29;;;;;;;140.35;58.42;;;;;;;;;;6156157;23;20048;-72
2022/01/16 08:16:58;;;;;;;175.90;75.82;;;;;;;;;;6129448;23;20013;-72
2022/01/16 08:19:24;;;;;;;196.35;91.80;;;;;;;;;;6129774;23;20009;-72
2022/01/16 08:21:49;;;;;;;150.52;75.38;;;;;;;;;;6155926;23;20084;-72
2022/01/16 08:24:15;;;;;;;120.60;56.03;;;;;;;;;;6155798;23;20008;-72
2022/01/16 08:26:41;;;;;;;110.47;49.90;;;;;;;;;;6155779;23;20025;-72
2022/01/16 08:29:07;;;;;;;103.47;56.85;;;;;;;;;;6155839;23;20484;-71
2022/01/16 08:31:32;;;;;;;73.85;41.15;;;;;;;;;;6155955;23;20005;-72
2022/01/16 08:33:58;;;;;;;53.42;31.38;;;;;;;;;;6156045;23;19998;-72
2022/01/16 08:36:23;;;;;;;52.45;29.55;;;;;;;;;;6156049;23;20016;-72
2022/01/16 08:38:49;;;;;;;58.72;31.38;;;;;;;;;;6155957;23;19998;-73
2022/01/16 08:41:15;;;;;;;57.95;32.30;;;;;;;;;;6156307;23;20064;-72
2022/01/16 08:43:41;;;;;;;54.83;31.63;;;;;;;;;;6127844;23;20346;-72
2022/01/16 08:46:06;;;;;;;53.28;29.17;;;;;;;;;;6155216;23;20048;-72
2022/01/16 08:48:32;;;;;;;46.85;26.00;;;;;;;;;;6129442;23;19998;-72
2022/01/16 08:54:59;;;;;;;47.50;25.27;;;;;;;;;;6150479;23;20053;-71
2022/01/16 09:00:59;;;;;;;48.97;27.77;;;;;;;;;;6126730;23;20001;-72
2022/01/16 09:07:01;;;;;;;67.45;34.63;;;;;;;;;;6126626;23;20017;-72
2022/01/16 09:13:03;;;;;;;60.28;30.42;;;;;;;;;;6126679;23;20003;-72
2022/01/16 09:19:03;;;;;;;54.58;29.30;;;;;;;;;;6126631;23;20323;-71
2022/01/16 09:28:52;;;;;;;47.90;25.35;;;;;;;;;;6127389;23;20136;-72
2022/01/16 09:34:52;;;;;;;65.60;33.25;;;;;;;;;;6128360;23;19997;-72
2022/01/16 09:40:54;;;;;;;44.13;23.83;;;;;;;;;;6128182;23;20095;-72
2022/01/16 09:46:54;;;;;;;46.03;24.80;;;;;;;;;;6128127;23;20384;-72
2022/01/16 09:52:55;;;;;;;46.67;24.83;;;;;;;;;;6128176;23;20012;-72
2022/01/16 10:02:31;;;;;;;34.45;19.63;;;;;;;;;;6157660;23;20041;-72
2022/01/16 10:08:33;;;;;;;27.63;15.48;;;;;;;;;;6157590;23;20021;-71
2022/01/16 10:14:45;;;;;;;28.13;15.73;;;;;;;;;;6157535;23;19996;-72
2022/01/16 10:25:05;;;;;;;21.55;11.52;;;;;;;;;;6096262;23;20001;-72
2022/01/16 10:31:05;;;;;;;24.23;14.15;;;;;;;;;;6096100;23;20017;-72
2022/01/16 10:40:56;;;;;;;18.90;11.40;;;;;;;;;;6096357;23;20009;-72
2022/01/16 10:46:56;;;;;;;23.75;11.32;;;;;;;;;;6095925;23;20064;-72
2022/01/16 10:52:59;;;;;;;23.70;12.90;;;;;;;;;;6156903;23;19997;-72
2022/01/16 11:12:50;;;;;;;22.15;11.93;;;;;;;;;;6156937;23;20033;-71
2022/01/16 11:18:51;;;;;;;19.83;10.20;;;;;;;;;;6156898;23;20004;-71
2022/01/16 11:31:48;;;;;;;28.25;14.27;;;;;;;;;;6156807;23;20059;-72
2022/01/16 11:37:31;;;;;;;21.33;9.82;;;;;;;;;;6156739;23;19932;-71
2022/01/16 11:43:36;;;;;;;19.20;9.85;;;;;;;;;;6156695;23;20004;-71
2022/01/16 11:49:41;;;;;;;25.10;10.27;;;;;;;;;;6156676;23;20004;-71
2022/01/16 11:55:41;;;;;;;19.00;9.65;;;;;;;;;;6156612;23;20016;-71
2022/01/16 12:05:24;;;;;;;17.55;8.85;;;;;;;;;;6156543;23;20039;-64
2022/01/16 12:33:10;;;;;;;9.63;5.10;;;;;;;;;;6066475;23;20014;-65
2022/01/16 12:54:06;;;;;;;11.10;6.50;;;;;;;;;;6009413;23;20052;-65
2022/01/16 13:00:09;;;;;;;7.43;5.00;;;;;;;;;;6097064;23;20049;-65
2022/01/16 13:43:29;;;;;;;12.05;7.72;;;;;;;;;;6131322;23;19912;-65
2022/01/16 13:45:55;;;;;;;14.27;8.07;;;;;;;;;;6127453;23;20018;-72
2022/01/16 13:48:28;;;;;;;11.27;6.78;;;;;;;;;;6127625;23;20131;-71
2022/01/16 13:50:55;;;;;;;13.65;7.65;;;;;;;;;;6102028;23;20330;-72
2022/01/16 13:53:22;;;;;;;12.20;7.22;;;;;;;;;;6127309;23;19998;-72
2022/01/16 13:59:22;;;;;;;11.73;7.13;;;;;;;;;;6128177;23;20005;-72
2022/01/16 14:05:25;;;;;;;9.43;5.53;;;;;;;;;;6128101;23;20104;-72
2022/01/16 14:11:27;;;;;;;10.95;7.13;;;;;;;;;;6127806;23;20001;-72
2022/01/16 14:17:29;;;;;;;12.40;7.85;;;;;;;;;;6127972;23;20426;-71
2022/01/16 14:23:30;;;;;;;13.48;8.23;;;;;;;;;;6128050;23;20037;-72
2022/01/16 14:29:31;;;;;;;14.60;8.07;;;;;;;;;;6127892;23;20067;-71
2022/01/16 14:35:31;;;;;;;15.85;8.93;;;;;;;;;;6127806;23;19997;-72
2022/01/16 14:45:51;;;;;;;18.35;10.43;;;;;;;;;;6127745;23;20112;-72
2022/01/16 14:52:05;;;;;;;22.05;11.38;;;;;;;;;;6127682;23;19997;-72
2022/01/16 14:58:06;;;;;;;24.88;12.18;;;;;;;;;;6127639;23;20020;-72
2022/01/16 15:04:08;;;;;;;23.27;12.45;;;;;;;;;;6127540;23;20001;-72
2022/01/16 15:10:09;;;;;;;23.60;13.55;;;;;;;;;;6127484;23;20049;-72
2022/01/16 15:16:12;;;;;;;21.80;13.07;;;;;;;;;;6127421;23;20054;-71
2022/01/16 15:22:21;;;;;;;41.85;22.63;;;;;;;;;;6127229;23;19997;-72
2022/01/16 15:32:40;;;;;;;29.90;15.88;;;;;;;;;;6066837;23;20054;-71
2022/01/16 15:46:20;;;;;;;37.58;20.30;;;;;;;;;;6067023;23;20001;-71
2022/01/16 15:52:20;;;;;;;31.98;18.85;;;;;;;;;;6066730;23;20002;-71
2022/01/16 15:58:21;;;;;;;44.47;20.38;;;;;;;;;;6122145;23;20016;-72
2022/01/16 16:04:22;;;;;;;44.60;19.42;;;;;;;;;;6127006;23;20383;-71
2022/01/16 16:10:23;;;;;;;38.17;17.90;;;;;;;;;;6126979;23;20038;-71
2022/01/16 16:16:24;;;;;;;27.83;14.60;;;;;;;;;;6126959;23;20331;-71
2022/01/16 16:22:24;;;;;;;21.55;10.07;;;;;;;;;;6126933;23;20031;-64
2022/01/16 16:28:24;;;;;;;23.75;11.15;;;;;;;;;;6126809;23;20342;-65
2022/01/16 16:34:25;;;;;;;19.48;10.63;;;;;;;;;;6126907;23;20430;-66
2022/01/16 16:40:26;;;;;;;20.70;11.18;;;;;;;;;;6126802;23;20002;-65
2022/01/16 16:49:50;;;;;;;23.10;10.40;;;;;;;;;;6126734;23;20457;-66
2022/01/16 16:55:51;;;;;;;18.63;8.95;;;;;;;;;;6126913;23;20000;-66
2022/01/16 17:01:52;;;;;;;10.98;6.00;;;;;;;;;;6126720;23;20016;-66
2022/01/16 17:07:53;;;;;;;14.43;8.32;;;;;;;;;;6126602;23;20020;-65
2022/01/16 17:13:53;;;;;;;13.80;7.65;;;;;;;;;;6126659;23;20001;-64
2022/01/16 17:19:53;;;;;;;15.43;8.77;;;;;;;;;;6126647;23;19997;-65
2022/01/16 17:25:54;;;;;;;13.88;8.10;;;;;;;;;;6126631;23;20001;-66
2022/01/16 17:31:54;;;;;;;16.10;8.02;;;;;;;;;;6126633;23;20001;-65
2022/01/16 20:41:43;;;;;;;28.05;16.58;;;;;;;;;;6177752;23;20088;-67
2022/01/16 20:44:10;;;;;;;29.00;17.77;;;;;;;;;;6185234;23;20061;-66
2022/01/16 20:46:36;;;;;;;33.15;20.08;;;;;;;;;;6185602;23;20028;-66
2022/01/16 20:49:02;;;;;;;35.15;19.95;;;;;;;;;;6185475;23;20009;-67
2022/01/16 20:51:29;;;;;;;33.95;19.48;;;;;;;;;;6185562;23;20004;-67
2022/01/16 20:53:55;;;;;;;37.42;19.95;;;;;;;;;;6185835;23;20005;-67
2022/01/16 20:56:21;;;;;;;31.45;17.77;;;;;;;;;;6185848;23;20001;-67
2022/01/16 20:58:46;;;;;;;29.23;17.63;;;;;;;;;;6185476;23;20433;-71
2022/01/16 21:01:15;;;;;;;30.13;18.85;;;;;;;;;;6185580;23;19998;-72
2022/01/16 21:03:42;;;;;;;28.83;17.13;;;;;;;;;;6185565;23;20012;-68
2022/01/16 21:06:07;;;;;;;23.92;13.73;;;;;;;;;;6185542;23;19997;-68
2022/01/16 21:08:33;;;;;;;29.50;18.35;;;;;;;;;;6185657;23;20036;-68
2022/01/16 21:10:59;;;;;;;31.52;18.10;;;;;;;;;;6185475;23;20482;-68
2022/01/16 21:13:25;;;;;;;25.55;15.88;;;;;;;;;;6185561;23;20001;-71
2022/01/16 21:15:50;;;;;;;28.95;17.08;;;;;;;;;;6185360;23;20294;-68
2022/01/16 21:18:16;;;;;;;28.85;18.05;;;;;;;;;;6185384;23;20038;-65
2022/01/16 21:20:46;;;;;;;29.58;16.10;;;;;;;;;;6187369;23;20005;-66
2022/01/16 21:23:12;;;;;;;;;;;;;;;;;;6188494;23;20012;-71
2022/01/16 21:25:39;;;;;;;25.40;15.63;;;;;;;;;;6187559;23;19900;-71
2022/01/16 21:28:11;;;;;;;26.35;16.92;;;;;;;;;;6187335;23;20005;-71
2022/01/16 21:30:40;;;;;;;32.47;17.10;;;;;;;;;;6187408;23;20033;-71
2022/01/16 21:33:06;;;;;;;30.15;18.20;;;;;;;;;;6187237;23;20369;-71
2022/01/16 21:35:33;;;;;;;38.72;22.05;;;;;;;;;;6187600;23;20001;-71
2022/01/16 21:37:59;;;;;;;32.58;18.10;;;;;;;;;;6160921;23;20425;-71
2022/01/16 21:40:26;;;;;;;33.45;18.23;;;;;;;;;;6186334;23;20017;-65
2022/01/16 21:42:52;;;;;;;33.67;17.67;;;;;;;;;;6187602;23;20017;-71
2022/01/16 21:45:22;;;;;;;27.75;15.35;;;;;;;;;;6187107;23;20020;-71
2022/01/16 21:47:56;;;;;;;32.97;17.77;;;;;;;;;;6187159;23;20009;-71
2022/01/16 21:50:22;;;;;;;32.65;19.30;;;;;;;;;;6187291;23;20005;-70
2022/01/16 21:52:48;;;;;;;29.52;17.10;;;;;;;;;;6187406;23;20005;-70
2022/01/16 21:55:15;;;;;;;30.73;18.67;;;;;;;;;;6187196;23;20008;-70
2022/01/16 21:57:41;;;;;;;26.30;14.13;;;;;;;;;;6187174;23;20437;-70
2022/01/16 22:00:07;;;;;;;28.98;16.65;;;;;;;;;;6160727;23;20085;-70
2022/01/16 22:02:37;;;;;;;35.17;19.52;;;;;;;;;;6187229;23;20008;-70
2022/01/16 22:05:03;;;;;;;30.60;18.42;;;;;;;;;;6186891;23;20291;-64
2022/01/16 22:07:29;;;;;;;28.52;16.85;;;;;;;;;;6187063;23;20001;-65
2022/01/16 22:09:56;;;;;;;31.35;18.75;;;;;;;;;;6187161;23;20009;-64
2022/01/16 22:12:24;;;;;;;20.17;11.98;;;;;;;;;;6187476;23;20020;-63
2022/01/16 22:14:50;;;;;;;28.35;17.67;;;;;;;;;;6187362;23;20433;-63
2022/01/16 22:17:15;;;;;;;29.40;17.63;;;;;;;;;;6187138;23;20224;-63
2022/01/16 22:19:41;;;;;;;28.35;17.23;;;;;;;;;;6187085;23;20318;-63
2022/01/16 22:22:06;;;;;;;30.98;18.48;;;;;;;;;;6186884;23;20001;-65
2022/01/16 22:24:32;;;;;;;26.67;16.90;;;;;;;;;;6186964;23;20055;-65
2022/01/16 22:26:57;;;;;;;28.10;17.40;;;;;;;;;;6186683;23;20004;-65
2022/01/16 22:29:23;;;;;;;29.60;17.08;;;;;;;;;;6186906;23;20333;-65
2022/01/16 22:31:48;;;;;;;24.40;15.52;;;;;;;;;;6186285;23;20444;-64
2022/01/16 22:34:14;;;;;;;26.20;15.07;;;;;;;;;;6186697;23;20005;-65
2022/01/16 22:36:40;;;;;;;27.30;16.27;;;;;;;;;;6186527;23;20005;-65
2022/01/16 22:39:06;;;;;;;24.58;15.13;;;;;;;;;;6186783;23;20016;-65
2022/01/16 22:41:31;;;;;;;25.38;14.98;;;;;;;;;;6186005;23;20342;-64
2022/01/16 22:43:57;;;;;;;25.02;14.57;;;;;;;;;;6186824;23;20020;-64
2022/01/16 22:46:27;;;;;;;23.17;14.60;;;;;;;;;;6159804;23;20005;-65
2022/01/16 22:48:53;;;;;;;22.83;14.33;;;;;;;;;;6186925;23;20369;-65
2022/01/16 22:51:19;;;;;;;20.63;13.27;;;;;;;;;;6186970;23;20003;-65
2022/01/16 22:53:45;;;;;;;21.83;13.10;;;;;;;;;;6186689;23;20012;-65
2022/01/16 22:56:10;;;;;;;24.38;13.45;;;;;;;;;;6186897;23;19997;-65
2022/01/16 22:58:36;;;;;;;17.52;11.05;;;;;;;;;;6186715;23;20016;-65
2022/01/16 23:01:02;;;;;;;23.05;13.25;;;;;;;;;;6160248;23;20005;-65
2022/01/16 23:03:29;;;;;;;21.48;11.82;;;;;;;;;;6186647;23;20005;-65
2022/01/16 23:05:54;;;;;;;23.58;14.30;;;;;;;;;;6186849;23;20001;-65
2022/01/16 23:08:32;;;;;;;22.27;13.27;;;;;;;;;;6186185;23;20497;-66
2022/01/16 23:11:08;;;;;;;22.38;12.80;;;;;;;;;;6137113;23;20008;-66
2022/01/16 23:13:34;;;;;;;20.98;12.93;;;;;;;;;;6186743;23;20381;-65
2022/01/16 23:15:59;;;;;;;25.38;13.38;;;;;;;;;;6186379;23;20024;-65
2022/01/16 23:18:25;;;;;;;23.80;14.35;;;;;;;;;;6160109;23;20012;-66
2022/01/16 23:20:50;;;;;;;24.83;14.00;;;;;;;;;;6186196;23;20012;-66
2022/01/16 23:23:16;;;;;;;21.00;12.88;;;;;;;;;;6186593;23;20063;-65
2022/01/16 23:25:43;;;;;;;18.30;11.57;;;;;;;;;;6186282;23;20031;-64
2022/01/16 23:28:08;;;;;;;19.15;12.43;;;;;;;;;;6185831;23;20056;-64
2022/01/16 23:30:34;;;;;;;17.88;10.68;;;;;;;;;;6160236;23;20001;-64
2022/01/16 23:33:00;;;;;;;22.55;13.52;;;;;;;;;;6186348;23;20314;-63
2022/01/16 23:35:28;;;;;;;21.00;12.00;;;;;;;;;;6186621;23;20079;-63
2022/01/16 23:37:54;;;;;;;20.63;12.13;;;;;;;;;;6186394;23;20016;-64
2022/01/16 23:40:19;;;;;;;16.48;9.55;;;;;;;;;;6185821;23;20029;-64
2022/01/16 23:42:51;;;;;;;17.25;10.65;;;;;;;;;;6186358;23;20009;-64
2022/01/16 23:45:19;;;;;;;17.73;10.88;;;;;;;;;;6186275;23;20009;-65
2022/01/16 23:47:44;;;;;;;16.77;9.75;;;;;;;;;;6186200;23;20405;-64
2022/01/16 23:50:10;;;;;;;22.05;11.65;;;;;;;;;;6186248;23;20012;-64
2022/01/16 23:52:39;;;;;;;18.92;10.10;;;;;;;;;;6186572;23;20417;-65
2022/01/16 23:55:05;;;;;;;16.05;8.75;;;;;;;;;;6186005;23;20443;-64